This is the latest recevied weather packets stored in our database for station/object VK5GR-12. If no packets are shown the sender has not sent any weather packets the latest 10 day(s).
| Time | Temp. | Humidity | Pressure | Rain* | Wind** | Luminosity | Snow |
|---|---|---|---|---|---|---|---|
| 1788184301 | 15.56° C | 52% | 1023.4 hPa | 0 mm | - | 0 W/m² | - |
| 1788183397 | 15.56° C | 52% | 1023.8 hPa | 0 mm | - | 0 W/m² | - |
| 1788182492 | 16.11° C | 51% | 1024 hPa | 0 mm | - | 0 W/m² | - |
| 1788181591 | 16.67° C | 50% | 1024.1 hPa | 0 mm | - | 0 W/m² | - |
| 1788180687 | 16.11° C | 50% | 1024 hPa | 0 mm | - | 0 W/m² | - |
| 1788179783 | 16.11° C | 51% | 1024.2 hPa | 0 mm | - | 0 W/m² | - |
| 1788178879 | 15.56° C | 53% | 1024.4 hPa | 0 mm | - | 0 W/m² | - |
| 1788177975 | 14.44° C | 59% | 1024.3 hPa | 0 mm | - | 0 W/m² | - |
| 1788177073 | 13.89° C | 61% | 1024.5 hPa | 0 mm | - | 0 W/m² | - |
| 1788176172 | 14.44° C | 59% | 1024.4 hPa | 0 mm | - | 0 W/m² | - |
| 1788175268 | 15° C | 57% | 1024.6 hPa | 0 mm | - | 0 W/m² | - |
| 1788174366 | 15° C | 58% | 1024.5 hPa | 0 mm | - | 0 W/m² | - |
| 1788173461 | 15° C | 59% | 1024.7 hPa | 0 mm | - | 0 W/m² | - |
| 1788172561 | 15.56° C | 58% | 1024.7 hPa | 0 mm | - | 0 W/m² | - |
| 1788171661 | 15.56° C | 56% | 1024.9 hPa | 0 mm | - | 0 W/m² | - |
| 1788170755 | 16.11° C | 55% | 1025.2 hPa | 0 mm | - | 0 W/m² | - |
| 1788169850 | 15.56° C | 55% | 1025.2 hPa | 0 mm | - | 0 W/m² | - |
| 1788168948 | 16.11° C | 54% | 1025.2 hPa | 0 mm | - | 0 W/m² | - |
| 1788168048 | 16.11° C | 53% | 1025.2 hPa | 0 mm | - | 0 W/m² | - |
| 1788167144 | 16.67° C | 53% | 1025 hPa | 0 mm | - | 0 W/m² | - |
| 1788166242 | 17.22° C | 52% | 1025.2 hPa | 0 mm | - | 0 W/m² | - |
| 1788165341 | 18.33° C | 51% | 1025.4 hPa | 0 mm | - | 1 W/m² | - |
| 1788164437 | 18.89° C | 48% | 1025.4 hPa | 0 mm | - | 7 W/m² | - |
| 1788163534 | 19.44° C | 46% | 1025.3 hPa | 0 mm | - | 15 W/m² | - |
| 1788162632 | 20.56° C | 44% | 1025.3 hPa | 0 mm | - | 28 W/m² | - |
* Rain latest hour (hover to see other rain measurements)
** Current wind speed in m/s (hover to see current wind gust speed)